Hotchkiss, CO

11:04 AM MDT on August 27, 2014 (GMT -0600)
Sunlight Mountain | Change Station
CLOSE
Current Station
Airport
Location: Sunlight Mountain,
Elevation: 10604 ft
Nearby Weather Stations
Active Advisory: Special Statement Active Notice: Public Information Statement

Elev 10604 ft 39.43 °N, 107.38 °W | Updated 6 minutes ago

Mostly Cloudy
Mostly Cloudy
46 °F
Feels Like 46 °F
N
0
Wind Variable Wind from North

Today
High -- | Low -- °F
--% Chance of Precip.
Yesterday
High -- | Low -- °F
Precip. -- in
6:35 AM 7:48 PM
Waxing Crescent, 4% visible
Pressure 30.53 in
Visibility 10.0 miles
Clouds Scattered Clouds 800 ft
Scattered Clouds 1200 ft
Mostly Cloudy 6500 ft
Dew Point 46 °F
Humidity 100%
Rainfall 0.00 in
Snow Depth 0 in , 0 in
UV 5 out of 12
Pollen 6.00 out of 12
Air Quality Not available.
Flu Activity Not available.
METAR K5SM 271658Z AUTO 00000KT 10SM VCTS SCT008 SCT012 BKN065 08/08 A3053 RMK AO2 LTG DSNT W THRU NE

More Conditions Fewer Conditions

Pressure 30.53 in
Visibility 10.0 miles
Clouds Scattered Clouds 800 ft
Scattered Clouds 1200 ft
Mostly Cloudy 6500 ft
Dew Point 46 °F
Humidity 100%
Rainfall 0.00 in
Snow Depth 0 in , 0 in
UV 5 out of 12
Pollen 6.00 out of 12
Air Quality Not available.
Flu Activity Not available.
METAR K5SM 271658Z AUTO 00000KT 10SM VCTS SCT008 SCT012 BKN065 08/08 A3053 RMK AO2 LTG DSNT W THRU NE

More Conditions Fewer Conditions

10-Day Weather Forecast

Almanac

Astronomy

Aug. 27, 2014 Rise Set
Actual Time 6:35 AM MDT 7:48 PM MDT
Civil Twilight 6:08 AM MDT 8:16 PM MDT
Nautical Twilight 5:35 AM MDT 8:49 PM MDT
Astronomical Twilight 5:00 AM MDT 9:23 PM MDT
Moon 8:32 AM MDT 8:44 PM MDT
Length of Visible Light 14h 08m
Length of Day
13h 13m
Tomorrow will be 2m 22s shorter.
Waxing Crescent, 4% of the Moon is Illuminated
Today
Waxing Crescent
Sep 2
First Quarter
Sep 8
Full
Sep 15
Last Quarter
Sep 24
New

Today's Extremes

State Highs State Lows

Community

WunderPhotos

Upload Photos

1,747,727 photos uploaded!

Nearby

Snow Depth

Station Depth Elevation
Park Reservoir 0 in 9960 ft
Overland Reservoir 0 in 9880 ft
Mesa Lakes 1 in 10000 ft
McClure Pass 1 in 9500 ft
North Lost Trail 1 in 9200 ft

Earthquake Activity

City Distance Mag. Time & Date
No recent earthquake activity has been reported nearby.
Minimum magnitude displayed is 2.5.

Coastal Water Temperatures

Place Temperature
No Stations Reporting

Nearby Weather Stations